Time;durP1;ratioP1;P1;durP2;ratioP2;P2;SDS_P1;SDS_P2;PMS_P1;PMS_P2;Temp;Humidity;BMP_temperature;BMP_pressure;BME280_temperature;BME280_humidity;BME280_pressure;Samples;Min_cycle;Max_cycle;Signal;HPM_P1;HPM_P2
2021/04/12 00:01:54;;;;;;;7.83;2.90;;;2.60;87.60;;;;;;5112982;28;20297;-64
2021/04/12 00:04:43;;;;;;;4.80;2.73;;;2.60;87.60;;;;;;5113903;28;20297;-64
2021/04/12 00:07:33;;;;;;;6.27;2.60;;;2.60;87.70;;;;;;5112834;28;20661;-64
2021/04/12 00:09:59;;;;;;;5.37;2.40;;;2.60;87.70;;;;;;5113632;28;20309;-64
2021/04/12 00:12:41;;;;;;;6.70;2.93;;;2.60;87.60;;;;;;5113698;28;20376;-64
2021/04/12 00:15:30;;;;;;;5.90;2.73;;;2.60;87.90;;;;;;5112929;28;20082;-64
2021/04/12 00:18:06;;;;;;;5.43;2.80;;;2.60;87.90;;;;;;5104473;28;20407;-64
2021/04/12 00:20:44;;;;;;;4.73;2.70;;;2.60;88.00;;;;;;5113457;28;20380;-64
2021/04/12 00:23:26;;;;;;;8.17;2.90;;;2.60;88.00;;;;;;5112770;28;20304;-64
2021/04/12 00:25:56;;;;;;;5.23;2.47;;;2.70;87.80;;;;;;5113230;28;20758;-64
2021/04/12 00:28:30;;;;;;;5.33;2.50;;;2.70;87.80;;;;;;5112800;28;20302;-64
2021/04/12 00:31:30;;;;;;;6.13;2.60;;;2.70;87.80;;;;;;5112894;28;20313;-64
2021/04/12 00:34:02;;;;;;;8.53;2.80;;;2.70;87.70;;;;;;5112557;28;20741;-64
2021/04/12 00:36:45;;;;;;;5.57;2.30;;;2.70;87.60;;;;;;5112690;28;20304;-64
2021/04/12 00:39:22;;;;;;;8.57;2.50;;;2.70;87.60;;;;;;5113039;28;20293;-64
2021/04/12 00:42:20;;;;;;;5.30;2.53;;;2.70;87.50;;;;;;5112825;28;20738;-63
2021/04/12 00:45:14;;;;;;;10.40;2.70;;;2.70;87.50;;;;;;5112448;28;20335;-63
2021/04/12 00:47:56;;;;;;;5.40;2.47;;;2.60;87.50;;;;;;5113041;28;20302;-63
2021/04/12 00:50:30;;;;;;;8.00;2.50;;;2.70;87.60;;;;;;5112415;28;20317;-63
2021/04/12 00:53:02;;;;;;;5.50;2.53;;;2.60;87.60;;;;;;5112473;28;20312;-63
2021/04/12 00:55:40;;;;;;;5.28;2.50;;;2.50;87.50;;;;;;5113014;28;20302;-63
2021/04/12 00:58:19;;;;;;;5.27;2.80;;;2.50;87.70;;;;;;5111936;28;20044;-63
2021/04/12 01:01:06;;;;;;;5.97;2.83;;;2.50;87.80;;;;;;5112630;28;20697;-64
2021/04/12 01:04:07;;;;;;;6.67;2.77;;;2.50;87.90;;;;;;5112370;28;20293;-63
2021/04/12 01:07:15;;;;;;;8.17;3.43;;;2.40;87.90;;;;;;5112691;28;20301;-63
2021/04/12 01:10:02;;;;;;;5.33;3.47;;;2.30;88.10;;;;;;5112410;28;20350;-64
2021/04/12 01:13:02;;;;;;;9.43;2.90;;;2.30;88.30;;;;;;5111916;28;20816;-63
2021/04/12 01:15:57;;;;;;;4.65;2.83;;;2.30;88.30;;;;;;5112706;28;20305;-64
2021/04/12 01:18:58;;;;;;;6.10;2.70;;;2.30;88.30;;;;;;5111816;28;20055;-64
2021/04/12 01:22:02;;;;;;;5.37;2.50;;;2.30;88.30;;;;;;5112381;28;20493;-64
2021/04/12 01:24:48;;;;;;;5.20;2.60;;;2.30;88.40;;;;;;5111826;28;20294;-64
2021/04/12 01:27:39;;;;;;;6.70;2.92;;;2.30;88.60;;;;;;5112206;28;20203;-64
2021/04/12 01:30:38;;;;;;;5.23;2.27;;;2.30;88.70;;;;;;5111537;28;20051;-64
2021/04/12 01:33:32;;;;;;;5.23;2.50;;;2.30;88.60;;;;;;5111030;28;20301;-63
2021/04/12 01:36:24;;;;;;;4.50;2.10;;;2.30;88.60;;;;;;5111782;28;20316;-64
2021/04/12 01:39:09;;;;;;;8.52;3.40;;;2.40;88.70;;;;;;5111083;28;20138;-64
2021/04/12 01:41:41;;;;;;;6.33;2.70;;;2.40;88.40;;;;;;5112754;28;20101;-64
2021/04/12 01:44:15;;;;;;;6.35;2.63;;;2.40;88.30;;;;;;5111885;28;20372;-64
2021/04/12 01:47:08;;;;;;;6.67;2.70;;;2.40;88.20;;;;;;5111035;28;20550;-64
2021/04/12 01:49:46;;;;;;;7.30;2.50;;;2.40;88.30;;;;;;5112215;28;20301;-64
2021/04/12 01:52:38;;;;;;;4.93;2.60;;;2.30;88.30;;;;;;5111799;28;20294;-63
2021/04/12 01:55:27;;;;;;;5.87;2.57;;;2.40;88.30;;;;;;5111674;28;20048;-64
2021/04/12 01:58:25;;;;;;;8.47;2.37;;;2.40;88.20;;;;;;5111796;28;20298;-64
2021/04/12 02:01:06;;;;;;;8.13;2.80;;;2.40;88.10;;;;;;5111147;28;20304;-64
2021/04/12 02:04:10;;;;;;;10.33;2.83;;;2.40;88.10;;;;;;5112195;28;20423;-64
2021/04/12 02:06:58;;;;;;;7.03;2.47;;;2.30;88.10;;;;;;5111353;28;20766;-64
2021/04/12 02:09:47;;;;;;;7.77;2.73;;;2.30;88.30;;;;;;5112045;28;20304;-64
2021/04/12 02:13:01;;;;;;;8.60;2.67;;;2.30;88.20;;;;;;5111751;28;20316;-64
2021/04/12 02:15:50;;;;;;;8.20;2.77;;;2.30;88.40;;;;;;5048334;28;20456;-64
2021/04/12 02:18:57;;;;;;;5.10;2.23;;;2.30;88.50;;;;;;5087536;28;20293;-64
2021/04/12 02:21:43;;;;;;;5.87;2.50;;;2.30;88.50;;;;;;5111066;28;20301;-64
2021/04/12 02:24:36;;;;;;;5.03;2.10;;;2.30;88.40;;;;;;5111592;28;20293;-64
2021/04/12 02:27:05;;;;;;;4.70;2.40;;;2.30;88.40;;;;;;5110978;28;20773;-64
2021/04/12 02:29:56;;;;;;;7.30;2.67;;;2.40;88.40;;;;;;5110857;28;20841;-64
2021/04/12 02:32:53;;;;;;;7.13;2.10;;;2.40;88.20;;;;;;5111828;28;20297;-64
2021/04/12 02:35:33;;;;;;;6.83;2.50;;;2.40;88.10;;;;;;5110637;28;20048;-64
2021/04/12 02:38:05;;;;;;;7.38;2.83;;;2.40;88.20;;;;;;5111010;28;20326;-64
2021/04/12 02:40:46;;;;;;;4.15;2.20;;;2.40;88.10;;;;;;5111557;28;20048;-64
2021/04/12 02:43:17;;;;;;;6.43;2.40;;;2.40;88.10;;;;;;5114237;28;20100;-64
2021/04/12 02:46:22;;;;;;;3.67;2.80;;;2.40;88.20;;;;;;5115204;28;20773;-64
2021/04/12 02:49:16;;;;;;;4.70;1.93;;;2.40;88.10;;;;;;5114725;28;20051;-64
2021/04/12 02:52:00;;;;;;;5.47;1.80;;;2.40;88.10;;;;;;5115115;28;20321;-64
2021/04/12 02:54:33;;;;;;;7.23;2.57;;;2.40;88.20;;;;;;5115377;28;20392;-64
2021/04/12 02:57:12;;;;;;;6.77;2.50;;;2.30;88.20;;;;;;5113915;28;20294;-63
2021/04/12 02:59:59;;;;;;;4.97;2.20;;;2.30;88.50;;;;;;5115555;28;20286;-64
2021/04/12 03:02:50;;;;;;;4.33;2.07;;;2.30;88.50;;;;;;5115178;28;20754;-63
2021/04/12 03:05:42;;;;;;;4.78;2.50;;;2.20;88.60;;;;;;5114399;28;20293;-64
2021/04/12 03:08:30;;;;;;;5.35;2.25;;;2.20;88.60;;;;;;5114907;28;20059;-63
2021/04/12 03:11:48;;;;;;;4.73;2.40;;;2.20;88.60;;;;;;5113674;28;20051;-64
2021/04/12 03:14:44;;;;;;;7.20;2.30;;;2.20;88.70;;;;;;5114799;28;20297;-64
2021/04/12 03:17:36;;;;;;;5.40;2.37;;;2.10;88.60;;;;;;5113993;28;20319;-64
2021/04/12 03:20:09;;;;;;;8.45;2.30;;;2.10;88.60;;;;;;5114329;28;20475;-64
2021/04/12 03:23:00;;;;;;;5.82;2.22;;;2.10;88.70;;;;;;5115024;28;20078;-64
2021/04/12 03:25:51;;;;;;;7.97;2.88;;;2.10;88.80;;;;;;5114184;28;20043;-64
2021/04/12 03:28:40;;;;;;;5.40;2.83;;;2.00;88.90;;;;;;5114472;28;20138;-64
2021/04/12 03:31:17;;;;;;;9.15;3.35;;;2.00;89.00;;;;;;5113807;28;20043;-64
2021/04/12 03:34:02;;;;;;;7.97;2.65;;;2.00;89.00;;;;;;5114393;28;20051;-64
2021/04/12 03:36:57;;;;;;;7.30;2.92;;;2.00;89.00;;;;;;5114481;28;20048;-64
2021/04/12 03:39:42;;;;;;;5.33;2.53;;;2.00;88.90;;;;;;5113965;28;20051;-64
2021/04/12 03:42:29;;;;;;;5.63;2.43;;;2.00;88.90;;;;;;5114195;28;20293;-64
2021/04/12 03:45:14;;;;;;;5.53;2.00;;;2.00;89.00;;;;;;5113739;28;20302;-64
2021/04/12 03:47:54;;;;;;;6.47;2.20;;;2.00;89.00;;;;;;5114512;28;20294;-64
2021/04/12 03:50:45;;;;;;;8.20;2.50;;;2.00;88.90;;;;;;5114368;28;20631;-64
2021/04/12 03:53:45;;;;;;;9.25;2.67;;;2.00;89.00;;;;;;5113113;28;20089;-64
2021/04/12 03:56:44;;;;;;;5.90;2.47;;;2.00;89.10;;;;;;5113786;28;20529;-63
2021/04/12 03:59:31;;;;;;;8.10;3.15;;;1.90;89.20;;;;;;5113181;28;20047;-64
2021/04/12 04:02:15;;;;;;;4.18;2.72;;;1.90;89.30;;;;;;5113626;28;20373;-65
2021/04/12 04:05:08;;;;;;;8.52;2.50;;;1.90;89.30;;;;;;5113848;28;20073;-64
2021/04/12 04:07:49;;;;;;;7.47;2.70;;;1.90;89.40;;;;;;5113341;28;20139;-64
2021/04/12 04:10:41;;;;;;;5.72;2.45;;;1.90;89.30;;;;;;5113688;28;20043;-65
2021/04/12 04:13:33;;;;;;;6.90;2.22;;;2.00;89.40;;;;;;5113483;28;20511;-65
2021/04/12 04:16:13;;;;;;;5.00;2.75;;;1.90;89.30;;;;;;5113240;28;20055;-65
2021/04/12 04:18:55;;;;;;;6.90;2.60;;;2.00;89.50;;;;;;5113792;28;20040;-65
2021/04/12 04:21:34;;;;;;;5.10;2.60;;;1.90;89.30;;;;;;5113035;28;20047;-65
2021/04/12 04:24:17;;;;;;;9.63;3.00;;;2.00;89.40;;;;;;5113146;28;20078;-65
2021/04/12 04:27:21;;;;;;;3.70;2.10;;;2.00;89.30;;;;;;5113463;28;20085;-65
2021/04/12 04:30:18;;;;;;;5.60;1.90;;;2.00;89.20;;;;;;5113114;28;20447;-64
2021/04/12 04:33:08;;;;;;;7.13;2.40;;;2.10;89.30;;;;;;5078925;28;20120;-64
2021/04/12 04:36:06;;;;;;;5.07;2.40;;;2.10;89.00;;;;;;5112846;28;20052;-65
2021/04/12 04:39:04;;;;;;;6.68;2.20;;;2.10;89.10;;;;;;5113333;28;20089;-65
2021/04/12 04:42:07;;;;;;;8.30;2.38;;;2.10;89.00;;;;;;5104616;28;20043;-64
2021/04/12 04:44:51;;;;;;;5.72;2.25;;;2.20;89.10;;;;;;5113125;28;20047;-64
2021/04/12 04:47:36;;;;;;;4.40;1.95;;;2.20;89.10;;;;;;5112845;28;20051;-66
2021/04/12 04:50:27;;;;;;;6.75;2.83;;;2.20;89.10;;;;;;5111748;28;20048;-64
2021/04/12 04:52:58;;;;;;;3.70;2.20;;;2.30;89.10;;;;;;5112281;28;20379;-65
2021/04/12 04:55:30;;;;;;;4.38;2.92;;;2.30;89.10;;;;;;5112077;28;20321;-65
2021/04/12 04:58:11;;;;;;;7.03;3.05;;;2.30;89.10;;;;;;5112642;28;20055;-64
2021/04/12 05:01:19;;;;;;;4.30;2.50;;;2.40;89.20;;;;;;5113042;28;20051;-64
2021/04/12 05:04:25;;;;;;;4.10;2.20;;;2.40;89.20;;;;;;5111622;28;20481;-64
2021/04/12 05:07:24;;;;;;;5.23;2.37;;;2.40;89.10;;;;;;5112739;28;20286;-64
2021/04/12 05:10:05;;;;;;;5.90;2.30;;;2.40;89.10;;;;;;5111708;28;20318;-65
2021/04/12 05:12:51;;;;;;;3.47;1.87;;;2.40;89.00;;;;;;5112945;28;20285;-65
2021/04/12 05:15:35;;;;;;;5.33;1.90;;;2.40;89.10;;;;;;5112572;28;20309;-65
2021/04/12 05:18:10;;;;;;;5.47;2.37;;;2.40;89.20;;;;;;5110452;28;20333;-65
2021/04/12 05:20:51;;;;;;;2.67;1.67;;;2.40;89.40;;;;;;5111961;27;20297;-65
2021/04/12 05:23:37;;;;;;;3.67;1.83;;;2.50;89.40;;;;;;5111941;28;20298;-65
2021/04/12 05:26:07;;;;;;;2.60;1.63;;;2.50;89.30;;;;;;5109964;28;20342;-65
2021/04/12 05:28:57;;;;;;;4.93;1.97;;;2.50;89.20;;;;;;5112005;28;20388;-65
2021/04/12 05:31:44;;;;;;;2.43;1.30;;;2.60;89.30;;;;;;5109471;28;20309;-65
2021/04/12 05:34:12;;;;;;;3.93;1.40;;;2.60;89.30;;;;;;5110650;28;20290;-65
2021/04/12 05:36:58;;;;;;;3.20;1.47;;;2.60;89.20;;;;;;5109456;28;20297;-65
2021/04/12 05:39:54;;;;;;;2.03;1.77;;;2.60;89.20;;;;;;5108717;28;20293;-65
2021/04/12 05:42:42;;;;;;;3.67;1.67;;;2.70;90.00;;;;;;5109407;28;20297;-65
2021/04/12 05:45:23;;;;;;;4.23;1.90;;;2.70;89.30;;;;;;5109336;28;20677;-65
2021/04/12 05:48:36;;;;;;;2.77;1.67;;;2.80;89.20;;;;;;5110094;28;20802;-65
2021/04/12 05:51:33;;;;;;;4.57;1.67;;;2.80;89.00;;;;;;5108771;28;20313;-65
2021/04/12 05:54:05;;;;;;;5.77;1.70;;;2.90;88.90;;;;;;5107615;28;20300;-65
2021/04/12 05:57:04;;;;;;;4.30;1.75;;;2.90;88.80;;;;;;5111760;28;20304;-65
2021/04/12 06:00:07;;;;;;;4.97;1.70;;;3.00;88.90;;;;;;5109875;28;20055;-65
2021/04/12 06:03:15;;;;;;;2.07;1.57;;;3.20;89.40;;;;;;5110958;28;20301;-65
2021/04/12 06:06:08;;;;;;;2.20;1.50;;;3.50;88.90;;;;;;5111410;28;20297;-65
2021/04/12 06:08:56;;;;;;;3.30;1.40;;;3.80;88.00;;;;;;5110805;28;20297;-65
2021/04/12 06:11:46;;;;;;;2.93;1.37;;;4.00;87.50;;;;;;5109309;28;20360;-65
2021/04/12 06:14:54;;;;;;;4.97;1.87;;;4.10;87.50;;;;;;5109356;28;20793;-66
2021/04/12 06:17:33;;;;;;;4.00;1.53;;;4.40;86.40;;;;;;5110455;28;20301;-65
2021/04/12 06:20:19;;;;;;;3.93;1.53;;;4.40;85.80;;;;;;5114732;28;20305;-65
2021/04/12 06:22:52;;;;;;;2.73;1.50;;;4.50;85.80;;;;;;5115763;28;20327;-65
2021/04/12 06:25:36;;;;;;;4.13;1.70;;;4.50;86.00;;;;;;5115574;28;20701;-65
2021/04/12 06:28:25;;;;;;;4.73;1.70;;;4.60;85.60;;;;;;5114691;28;20301;-65
2021/04/12 06:31:22;;;;;;;3.00;1.60;;;4.70;85.30;;;;;;5115367;28;20643;-65
2021/04/12 06:34:46;;;;;;;4.70;1.87;;;4.70;85.00;;;;;;5115563;28;20286;-65
2021/04/12 06:37:18;;;;;;;2.60;1.60;;;4.80;84.90;;;;;;5114633;28;20786;-65
2021/04/12 06:40:15;;;;;;;6.75;1.48;;;4.90;85.00;;;;;;5115261;28;20793;-65
2021/04/12 06:43:02;;;;;;;8.30;1.70;;;4.90;84.70;;;;;;5114494;28;20122;-65
2021/04/12 06:45:52;;;;;;;4.50;1.80;;;5.00;84.70;;;;;;5115577;28;20658;-63
2021/04/12 06:48:30;;;;;;;4.47;1.80;;;5.30;84.60;;;;;;5114517;28;20408;-63
2021/04/12 06:51:34;;;;;;;7.87;1.90;;;5.50;84.10;;;;;;5114824;28;20836;-65
2021/04/12 06:54:14;;;;;;;3.70;1.40;;;5.70;82.70;;;;;;5114746;28;20733;-64
2021/04/12 06:57:04;;;;;;;6.47;1.37;;;5.70;82.60;;;;;;5114550;28;20289;-64
2021/04/12 07:00:08;;;;;;;5.23;1.30;;;5.80;82.40;;;;;;5115125;28;20759;-64
2021/04/12 07:02:52;;;;;;;3.80;1.20;;;5.80;81.50;;;;;;5114491;28;20293;-64
2021/04/12 07:05:55;;;;;;;4.67;1.20;;;5.80;81.80;;;;;;5115073;28;20822;-64
2021/04/12 07:08:41;;;;;;;4.20;1.70;;;6.00;81.30;;;;;;5115125;28;20301;-64
2021/04/12 07:11:35;;;;;;;3.77;1.30;;;6.20;81.30;;;;;;5113881;28;20320;-64
2021/04/12 07:14:31;;;;;;;5.80;1.13;;;6.30;79.20;;;;;;5114581;28;20742;-63
2021/04/12 07:17:10;;;;;;;4.40;1.50;;;6.30;79.70;;;;;;5113721;28;20308;-64
2021/04/12 07:20:29;;;;;;;3.87;1.40;;;6.30;79.50;;;;;;5114736;28;20343;-65
2021/04/12 07:23:19;;;;;;;5.60;1.63;;;6.30;79.10;;;;;;5063343;27;20660;-63
2021/04/12 07:26:04;;;;;;;8.10;1.57;;;6.50;78.60;;;;;;5114479;28;20293;-64
2021/04/12 07:29:07;;;;;;;6.07;1.23;;;6.60;79.20;;;;;;5114048;28;20294;-65
2021/04/12 07:31:44;;;;;;;;;;;6.90;78.60;;;;;;5114441;28;20313;-64
2021/04/12 07:34:49;;;;;;;4.30;1.10;;;7.20;75.00;;;;;;5114002;27;19920;-65
2021/04/12 07:37:20;;;;;;;3.53;1.30;;;7.50;75.60;;;;;;5110746;28;20308;-66
2021/04/12 07:40:02;;;;;;;5.97;1.27;;;7.80;75.10;;;;;;5113872;28;20304;-64
2021/04/12 07:42:54;;;;;;;4.18;1.13;;;8.00;72.90;;;;;;5114384;28;21317;-65
2021/04/12 07:45:41;;;;;;;3.30;1.40;;;8.10;71.50;;;;;;5111898;28;20059;-64
2021/04/12 07:48:44;;;;;;;4.30;1.07;;;8.20;72.80;;;;;;5113049;28;20369;-64
2021/04/12 07:52:00;;;;;;;4.30;1.10;;;8.10;70.30;;;;;;5113385;28;20324;-64
2021/04/12 07:55:14;;;;;;;3.53;0.97;;;8.10;70.80;;;;;;5113462;27;20384;-64
2021/04/12 07:58:21;;;;;;;3.30;1.00;;;8.10;70.40;;;;;;5111115;28;20372;-64
2021/04/12 08:01:03;;;;;;;6.40;1.60;;;8.50;70.40;;;;;;5111971;28;20296;-64
2021/04/12 08:04:05;;;;;;;7.72;2.05;;;8.80;71.30;;;;;;5112666;28;20294;-64
2021/04/12 08:07:08;;;;;;;5.47;1.03;;;9.30;67.80;;;;;;5113292;28;20055;-64
2021/04/12 08:10:11;;;;;;;5.13;1.13;;;9.60;66.40;;;;;;5114232;28;20712;-64
2021/04/12 08:13:09;;;;;;;6.50;1.43;;;10.00;64.70;;;;;;5113205;28;20047;-64
2021/04/12 08:16:19;;;;;;;4.03;1.20;;;10.00;62.90;;;;;;5113540;28;20492;-65
2021/04/12 08:19:13;;;;;;;2.33;1.00;;;9.90;64.30;;;;;;5089243;28;20044;-65
2021/04/12 08:21:44;;;;;;;5.27;1.13;;;9.90;67.30;;;;;;5112939;28;20120;-65
2021/04/12 08:24:43;;;;;;;2.50;0.95;;;10.10;69.00;;;;;;5113277;28;20139;-65
2021/04/12 08:27:11;;;;;;;5.97;1.37;;;10.40;63.00;;;;;;5111182;28;20048;-67
2021/04/12 08:30:14;;;;;;;5.67;1.10;;;10.60;66.50;;;;;;5106614;28;20411;-65
2021/04/12 08:33:01;;;;;;;5.90;1.00;;;10.80;64.30;;;;;;5109889;28;20044;-67
2021/04/12 08:36:02;;;;;;;2.97;0.80;;;10.50;64.70;;;;;;5109494;28;20043;-67
2021/04/12 08:39:14;;;;;;;3.50;0.98;;;10.60;63.00;;;;;;5110062;28;20574;-67
2021/04/12 08:41:49;;;;;;;5.82;0.90;;;10.90;56.60;;;;;;5109853;28;20052;-68
2021/04/12 08:44:42;;;;;;;6.00;0.90;;;11.30;59.80;;;;;;5109720;27;20047;-69
2021/04/12 08:47:14;;;;;;;54.57;4.47;;;11.70;60.60;;;;;;5106226;28;20055;-67
2021/04/12 08:50:31;;;;;;;6.27;0.93;;;11.40;58.00;;;;;;5109559;28;20051;-68
2021/04/12 08:53:15;;;;;;;6.60;2.40;;;11.20;57.20;;;;;;5075117;28;20101;-67
2021/04/12 08:55:49;;;;;;;7.13;1.77;;;11.20;59.40;;;;;;5108734;28;20058;-66
2021/04/12 08:58:43;;;;;;;3.63;0.57;;;11.00;58.90;;;;;;5108754;28;20096;-66
2021/04/12 09:01:46;;;;;;;4.93;1.13;;;11.20;57.80;;;;;;5109132;28;20128;-67
2021/04/12 09:04:49;;;;;;;3.70;0.80;;;11.50;57.30;;;;;;5109195;27;20067;-65
2021/04/12 09:07:31;;;;;;;5.67;0.80;;;11.70;57.20;;;;;;5109042;27;20075;-66
2021/04/12 09:10:23;;;;;;;4.07;0.60;;;11.80;56.50;;;;;;5108485;28;20050;-65
2021/04/12 09:13:25;;;;;;;4.97;0.73;;;11.30;56.50;;;;;;5109238;28;20109;-65
2021/04/12 09:16:15;;;;;;;3.65;0.60;;;10.70;57.30;;;;;;5108458;28;20510;-65
2021/04/12 09:19:13;;;;;;;3.90;0.70;;;10.30;59.30;;;;;;5108874;28;20075;-68
2021/04/12 09:21:55;;;;;;;1.60;0.57;;;9.40;61.80;;;;;;5075043;28;20412;-65
2021/04/12 09:24:33;;;;;;;3.87;1.10;;;8.20;65.30;;;;;;5108070;28;20086;-65
2021/04/12 09:27:36;;;;;;;4.47;1.70;;;7.30;68.70;;;;;;5108916;28;20051;-65
2021/04/12 09:30:33;;;;;;;3.93;1.63;;;6.70;69.90;;;;;;5107764;28;20313;-65
2021/04/12 09:33:23;;;;;;;2.63;0.80;;;6.40;70.70;;;;;;5108657;28;20301;-65
2021/04/12 09:36:07;;;;;;;1.90;0.77;;;6.20;71.50;;;;;;5108667;28;20820;-65
2021/04/12 09:38:52;;;;;;;2.83;1.03;;;6.20;71.50;;;;;;5108288;28;20325;-66
2021/04/12 09:41:39;;;;;;;5.97;1.37;;;6.20;71.90;;;;;;5106975;28;20301;-65
2021/04/12 09:44:39;;;;;;;3.20;0.80;;;6.30;72.20;;;;;;5107559;28;20385;-66
2021/04/12 09:47:52;;;;;;;5.87;1.10;;;6.20;72.10;;;;;;5108736;28;20302;-65
2021/04/12 09:50:42;;;;;;;2.83;0.85;;;6.10;72.70;;;;;;5108615;28;20305;-66
2021/04/12 09:53:37;;;;;;;4.53;1.30;;;6.00;73.50;;;;;;5108169;28;20046;-65
2021/04/12 09:56:41;;;;;;;2.90;0.87;;;6.00;73.20;;;;;;5108521;28;20301;-65
2021/04/12 09:59:18;;;;;;;6.17;1.13;;;6.00;73.30;;;;;;5108033;28;20297;-66
2021/04/12 10:02:17;;;;;;;3.60;0.80;;;6.00;73.60;;;;;;5108405;28;20296;-66
2021/04/12 10:05:05;;;;;;;2.40;1.00;;;6.20;72.90;;;;;;5108035;28;20297;-66
2021/04/12 10:08:08;;;;;;;2.20;0.87;;;6.30;71.90;;;;;;5108511;28;20305;-66
2021/04/12 10:10:49;;;;;;;2.20;0.97;;;6.50;71.50;;;;;;5108649;28;20818;-66
2021/04/12 10:13:24;;;;;;;2.17;1.02;;;6.70;71.20;;;;;;5108038;28;20774;-65
2021/04/12 10:16:08;;;;;;;2.60;0.73;;;7.00;70.90;;;;;;5108100;28;20051;-66
2021/04/12 10:18:40;;;;;;;3.40;0.87;;;7.20;70.00;;;;;;5108099;28;20301;-66
2021/04/12 10:21:27;;;;;;;2.23;0.83;;;7.40;69.30;;;;;;5107343;28;20305;-65
2021/04/12 10:24:09;;;;;;;4.10;1.40;;;7.60;68.60;;;;;;5108664;28;20647;-66
2021/04/12 10:26:43;;;;;;;2.25;0.90;;;7.90;67.80;;;;;;5107770;28;20614;-67
2021/04/12 10:29:22;;;;;;;2.27;0.87;;;8.10;67.40;;;;;;5108277;28;20124;-66
2021/04/12 10:31:58;;;;;;;3.30;1.00;;;8.40;66.30;;;;;;5108366;28;20313;-66
2021/04/12 10:34:27;;;;;;;4.87;1.10;;;8.70;66.60;;;;;;5107456;28;20301;-65
2021/04/12 10:37:13;;;;;;;4.43;0.90;;;8.90;64.80;;;;;;5108508;28;20394;-66
2021/04/12 10:39:58;;;;;;;4.37;1.20;;;9.20;64.00;;;;;;5108264;28;20289;-66
2021/04/12 10:42:40;;;;;;;5.03;0.87;;;9.50;63.00;;;;;;5107547;28;20301;-66
2021/04/12 10:45:14;;;;;;;5.05;1.10;;;9.70;63.00;;;;;;5107748;28;20301;-66
2021/04/12 10:48:01;;;;;;;2.00;0.60;;;9.50;62.50;;;;;;5107326;28;20528;-65
2021/04/12 10:50:49;;;;;;;2.97;0.90;;;9.10;63.40;;;;;;5108567;28;20843;-65
2021/04/12 10:53:42;;;;;;;3.83;1.07;;;8.70;64.10;;;;;;5107915;28;20297;-66
2021/04/12 10:56:21;;;;;;;3.93;1.40;;;8.10;66.40;;;;;;5106634;28;20308;-67
2021/04/12 10:59:22;;;;;;;1.60;0.93;;;7.60;67.30;;;;;;5106983;28;20289;-65
2021/04/12 11:02:00;;;;;;;2.87;1.47;;;7.20;68.90;;;;;;5071784;28;21100;-66
2021/04/12 11:04:42;;;;;;;2.67;1.40;;;7.10;70.20;;;;;;5112289;28;20751;-65
2021/04/12 11:07:39;;;;;;;3.75;0.88;;;7.10;70.30;;;;;;5111627;28;20289;-68
2021/04/12 11:10:26;;;;;;;6.57;0.90;;;7.10;69.40;;;;;;5110428;28;20054;-67
2021/04/12 11:13:12;;;;;;;1.47;0.80;;;7.10;69.10;;;;;;5111327;28;20316;-66
2021/04/12 11:16:01;;;;;;;5.60;1.00;;;7.10;68.90;;;;;;5110870;28;20293;-66
2021/04/12 11:18:49;;;;;;;2.67;0.90;;;7.30;69.20;;;;;;5109502;28;20305;-67
2021/04/12 11:21:26;;;;;;;2.93;0.93;;;7.70;68.90;;;;;;5081043;28;20454;-65
2021/04/12 11:24:17;;;;;;;2.33;0.63;;;8.20;67.70;;;;;;5109932;28;20293;-67
2021/04/12 11:27:08;;;;;;;3.85;1.20;;;8.40;66.00;;;;;;5111034;28;20301;-67
2021/04/12 11:29:41;;;;;;;3.20;1.17;;;8.50;66.20;;;;;;5110644;28;20097;-67
2021/04/12 11:32:42;;;;;;;3.07;0.70;;;8.50;66.50;;;;;;5108613;28;20309;-65
2021/04/12 11:35:13;;;;;;;3.80;0.80;;;8.50;67.20;;;;;;5109867;28;20816;-67
2021/04/12 11:38:09;;;;;;;3.65;1.55;;;8.70;67.20;;;;;;5110914;28;20058;-65
2021/04/12 11:40:43;;;;;;;3.43;0.83;;;8.80;66.10;;;;;;5111096;28;20085;-67
2021/04/12 11:43:16;;;;;;;3.93;1.03;;;9.00;66.60;;;;;;5111103;28;20321;-65
2021/04/12 11:45:52;;;;;;;5.03;0.70;;;9.20;66.10;;;;;;5110150;28;20293;-65
2021/04/12 11:48:27;;;;;;;2.53;0.70;;;9.40;65.20;;;;;;5110519;28;20304;-65
2021/04/12 11:51:11;;;;;;;1.77;0.50;;;9.40;64.20;;;;;;5110230;28;20314;-65
2021/04/12 11:53:58;;;;;;;4.50;0.53;;;9.20;63.50;;;;;;5109113;28;20317;-64
2021/04/12 11:56:46;;;;;;;2.13;0.63;;;8.40;66.50;;;;;;5113978;28;20308;-64
2021/04/12 12:00:04;;;;;;;2.80;0.93;;;7.80;68.90;;;;;;5113091;28;20293;-66
2021/04/12 12:02:51;;;;;;;4.40;0.70;;;7.20;70.50;;;;;;5114111;28;20408;-63
2021/04/12 12:05:52;;;;;;;1.80;1.07;;;6.80;72.20;;;;;;5113135;28;20343;-64
2021/04/12 12:08:28;;;;;;;1.63;0.70;;;6.50;73.00;;;;;;5110350;28;20858;-63
2021/04/12 12:11:13;;;;;;;1.43;0.90;;;6.20;73.60;;;;;;5113393;28;20404;-64
2021/04/12 12:13:53;;;;;;;1.47;0.70;;;6.10;74.40;;;;;;5113169;28;20293;-64
2021/04/12 12:16:43;;;;;;;3.50;0.97;;;6.10;74.80;;;;;;5112878;28;20293;-64
2021/04/12 12:19:27;;;;;;;3.20;1.10;;;6.20;75.70;;;;;;5112623;28;20301;-64
2021/04/12 12:22:28;;;;;;;3.30;0.90;;;6.30;75.50;;;;;;5113599;28;20282;-63
2021/04/12 12:25:07;;;;;;;3.07;1.90;;;6.40;75.60;;;;;;5113461;28;20305;-64
2021/04/12 12:27:39;;;;;;;2.13;0.80;;;6.60;75.90;;;;;;5113373;28;20289;-65
2021/04/12 12:30:19;;;;;;;;;;;6.90;75.90;;;;;;5113082;28;20363;-64
2021/04/12 12:32:56;;;;;;;4.30;0.90;;;7.20;75.60;;;;;;5111896;28;19926;-65
2021/04/12 12:35:50;;;;;;;1.43;0.60;;;7.20;74.00;;;;;;5113232;28;20662;-64
2021/04/12 12:38:25;;;;;;;5.00;1.63;;;7.20;74.00;;;;;;5112662;28;20373;-64
2021/04/12 12:40:55;;;;;;;2.37;0.70;;;7.30;73.90;;;;;;5112360;28;20326;-64
2021/04/12 12:43:29;;;;;;;1.70;0.70;;;7.50;73.50;;;;;;5112749;28;20623;-64
2021/04/12 12:46:06;;;;;;;3.93;0.60;;;7.60;73.00;;;;;;5110410;28;20350;-65
2021/04/12 12:48:35;;;;;;;2.00;0.80;;;7.80;73.20;;;;;;5110350;28;20333;-64
2021/04/12 12:51:13;;;;;;;2.47;1.10;;;8.10;73.30;;;;;;5110334;28;20844;-64
2021/04/12 12:53:44;;;;;;;1.20;0.77;;;8.40;72.10;;;;;;5110860;28;20297;-64
2021/04/12 12:56:22;;;;;;;4.43;1.10;;;8.50;71.30;;;;;;5110760;28;20692;-64
2021/04/12 12:59:25;;;;;;;2.83;0.80;;;8.40;70.30;;;;;;5111269;28;20130;-64
2021/04/12 13:01:53;;;;;;;3.13;0.87;;;8.20;70.10;;;;;;5093073;28;20304;-65
2021/04/12 13:04:21;;;;;;;1.37;0.63;;;8.20;71.60;;;;;;5112681;28;20302;-64
2021/04/12 13:06:53;;;;;;;1.23;0.63;;;8.40;71.90;;;;;;5112370;28;20297;-65
2021/04/12 13:09:31;;;;;;;4.00;1.17;;;8.80;71.70;;;;;;5111883;28;20332;-65
2021/04/12 13:12:16;;;;;;;5.80;1.07;;;9.00;70.00;;;;;;5112240;28;20077;-65
2021/04/12 13:14:44;;;;;;;5.03;1.23;;;9.20;70.10;;;;;;5112183;28;20305;-65
2021/04/12 13:17:19;;;;;;;4.10;0.90;;;9.40;69.50;;;;;;5111629;28;20301;-65
2021/04/12 13:19:51;;;;;;;3.27;1.00;;;9.40;69.30;;;;;;5111863;28;20298;-65
2021/04/12 13:22:25;;;;;;;5.03;0.70;;;9.30;69.30;;;;;;5111236;28;20707;-65
2021/04/12 13:24:51;;;;;;;4.10;0.87;;;8.70;67.90;;;;;;5111793;28;20054;-64
2021/04/12 13:27:21;;;;;;;5.27;1.10;;;8.10;69.70;;;;;;5111925;28;20289;-65
2021/04/12 13:30:01;;;;;;;1.63;0.80;;;7.70;69.80;;;;;;5111484;28;20054;-65
2021/04/12 13:32:32;;;;;;;1.93;0.60;;;7.40;70.70;;;;;;5112316;28;20309;-65
2021/04/12 13:35:06;;;;;;;2.17;1.30;;;7.10;71.10;;;;;;5111877;28;20297;-64
2021/04/12 13:37:35;;;;;;;2.67;0.70;;;6.90;71.60;;;;;;5111546;28;20055;-64
2021/04/12 13:40:28;;;;;;;1.73;1.10;;;6.70;72.10;;;;;;5111558;28;20305;-64
2021/04/12 13:42:58;;;;;;;2.90;0.80;;;6.80;72.90;;;;;;5110868;28;20786;-64
2021/04/12 13:45:40;;;;;;;2.67;1.00;;;7.10;72.70;;;;;;5112117;28;20295;-64
2021/04/12 13:48:26;;;;;;;2.97;0.80;;;7.30;71.80;;;;;;5111751;28;20388;-65
2021/04/12 13:51:06;;;;;;;3.10;1.00;;;7.50;71.20;;;;;;5110431;28;20733;-64
2021/04/12 13:53:35;;;;;;;24.03;22.40;;;7.50;70.70;;;;;;5112083;28;20308;-64
2021/04/12 13:56:11;;;;;;;2.20;1.00;;;7.70;71.00;;;;;;5111437;28;20418;-64
2021/04/12 13:58:43;;;;;;;3.13;1.90;;;7.90;69.50;;;;;;5110844;28;20309;-63
2021/04/12 14:01:22;;;;;;;3.17;0.97;;;7.80;69.60;;;;;;5111242;28;20838;-63
2021/04/12 14:04:02;;;;;;;3.00;0.80;;;7.80;69.60;;;;;;5111171;28;20293;-64
2021/04/12 14:06:36;;;;;;;3.67;1.20;;;7.80;69.50;;;;;;5111878;28;20300;-64
2021/04/12 14:09:42;;;;;;;2.77;0.80;;;7.70;69.40;;;;;;5111006;28;20325;-63
2021/04/12 14:12:18;;;;;;;2.17;0.60;;;7.60;66.80;;;;;;5101446;28;20363;-63
2021/04/12 14:14:55;;;;;;;0.67;0.50;;;7.50;67.40;;;;;;5111472;28;20289;-64
2021/04/12 14:17:30;;;;;;;3.77;0.77;;;7.40;66.30;;;;;;5111427;28;20297;-64
2021/04/12 14:20:11;;;;;;;1.80;0.50;;;7.50;66.90;;;;;;5110192;28;20305;-63
2021/04/12 14:22:50;;;;;;;3.50;0.73;;;7.70;66.30;;;;;;5111546;28;20895;-63
2021/04/12 14:25:28;;;;;;;2.97;0.73;;;7.90;65.60;;;;;;5110670;28;20289;-64
2021/04/12 14:28:15;;;;;;;4.10;0.97;;;8.00;65.90;;;;;;5111251;28;20300;-63
2021/04/12 14:30:57;;;;;;;1.20;0.60;;;7.90;66.20;;;;;;5110935;28;20328;-64
2021/04/12 14:33:31;;;;;;;5.37;0.93;;;7.70;66.30;;;;;;5110720;28;20294;-63
2021/04/12 14:36:07;;;;;;;3.03;0.90;;;7.60;67.10;;;;;;5111133;28;20435;-63
2021/04/12 14:38:37;;;;;;;5.13;0.90;;;7.60;67.80;;;;;;5113756;28;20392;-64
2021/04/12 14:41:10;;;;;;;2.63;0.90;;;7.70;68.20;;;;;;5113851;28;20289;-64